sensor_id;sensor_type;location;lat;lon;timestamp;P1;durP1;ratioP1;P2;durP2;ratioP2
18789;SDS011;9523;42.650;23.386;2023-05-01T00:00:48;6.83;;;5.80;;
18789;SDS011;9523;42.650;23.386;2023-05-01T00:03:17;7.60;;;5.93;;
18789;SDS011;9523;42.650;23.386;2023-05-01T00:05:44;6.70;;;5.67;;
18789;SDS011;9523;42.650;23.386;2023-05-01T00:08:11;9.77;;;6.13;;
18789;SDS011;9523;42.650;23.386;2023-05-01T00:10:38;7.77;;;5.97;;
18789;SDS011;9523;42.650;23.386;2023-05-01T00:13:05;7.93;;;6.17;;
18789;SDS011;9523;42.650;23.386;2023-05-01T00:15:33;14.80;;;6.30;;
18789;SDS011;9523;42.650;23.386;2023-05-01T00:18:00;6.93;;;6.23;;
18789;SDS011;9523;42.650;23.386;2023-05-01T00:20:29;9.17;;;6.20;;
18789;SDS011;9523;42.650;23.386;2023-05-01T00:22:56;7.00;;;6.20;;
18789;SDS011;9523;42.650;23.386;2023-05-01T00:25:23;6.63;;;5.70;;
18789;SDS011;9523;42.650;23.386;2023-05-01T00:27:49;8.57;;;5.63;;
18789;SDS011;9523;42.650;23.386;2023-05-01T00:30:16;7.73;;;6.70;;
18789;SDS011;9523;42.650;23.386;2023-05-01T00:32:43;9.27;;;5.93;;
18789;SDS011;9523;42.650;23.386;2023-05-01T00:35:10;9.47;;;6.77;;
18789;SDS011;9523;42.650;23.386;2023-05-01T00:37:39;7.73;;;6.77;;
18789;SDS011;9523;42.650;23.386;2023-05-01T00:40:06;7.40;;;6.40;;
18789;SDS011;9523;42.650;23.386;2023-05-01T00:42:34;7.23;;;6.13;;
18789;SDS011;9523;42.650;23.386;2023-05-01T00:45:01;7.70;;;6.73;;
18789;SDS011;9523;42.650;23.386;2023-05-01T00:47:29;8.50;;;6.67;;
18789;SDS011;9523;42.650;23.386;2023-05-01T00:49:55;8.40;;;6.37;;
18789;SDS011;9523;42.650;23.386;2023-05-01T00:52:23;7.70;;;6.67;;
18789;SDS011;9523;42.650;23.386;2023-05-01T00:54:51;8.57;;;6.93;;
18789;SDS011;9523;42.650;23.386;2023-05-01T00:57:18;8.57;;;6.50;;
18789;SDS011;9523;42.650;23.386;2023-05-01T00:59:45;7.30;;;6.20;;
18789;SDS011;9523;42.650;23.386;2023-05-01T01:02:13;7.60;;;6.77;;
18789;SDS011;9523;42.650;23.386;2023-05-01T01:04:40;8.57;;;6.90;;
18789;SDS011;9523;42.650;23.386;2023-05-01T01:07:10;7.53;;;6.50;;
18789;SDS011;9523;42.650;23.386;2023-05-01T01:09:47;8.60;;;6.80;;
18789;SDS011;9523;42.650;23.386;2023-05-01T01:12:23;8.10;;;7.00;;
18789;SDS011;9523;42.650;23.386;2023-05-01T01:14:54;8.17;;;7.10;;
18789;SDS011;9523;42.650;23.386;2023-05-01T01:17:28;8.80;;;6.77;;
18789;SDS011;9523;42.650;23.386;2023-05-01T01:20:13;15.53;;;7.53;;
18789;SDS011;9523;42.650;23.386;2023-05-01T01:26:13;9.43;;;6.83;;
18789;SDS011;9523;42.650;23.386;2023-05-01T01:29:16;6.93;;;6.23;;
18789;SDS011;9523;42.650;23.386;2023-05-01T01:32:02;9.50;;;7.03;;
18789;SDS011;9523;42.650;23.386;2023-05-01T01:34:43;7.73;;;6.57;;
18789;SDS011;9523;42.650;23.386;2023-05-01T01:37:14;8.40;;;6.73;;
18789;SDS011;9523;42.650;23.386;2023-05-01T01:39:45;8.17;;;6.83;;
18789;SDS011;9523;42.650;23.386;2023-05-01T01:42:18;9.33;;;6.70;;
18789;SDS011;9523;42.650;23.386;2023-05-01T01:44:50;8.70;;;6.50;;
18789;SDS011;9523;42.650;23.386;2023-05-01T01:47:19;8.30;;;6.03;;
18789;SDS011;9523;42.650;23.386;2023-05-01T01:49:53;10.03;;;6.67;;
18789;SDS011;9523;42.650;23.386;2023-05-01T01:52:22;7.93;;;6.80;;
18789;SDS011;9523;42.650;23.386;2023-05-01T01:54:51;11.33;;;7.23;;
18789;SDS011;9523;42.650;23.386;2023-05-01T01:57:22;8.80;;;6.63;;
18789;SDS011;9523;42.650;23.386;2023-05-01T01:59:50;9.27;;;6.90;;
18789;SDS011;9523;42.650;23.386;2023-05-01T02:02:18;7.40;;;6.13;;
18789;SDS011;9523;42.650;23.386;2023-05-01T02:04:47;10.80;;;7.30;;
18789;SDS011;9523;42.650;23.386;2023-05-01T02:07:16;8.63;;;7.17;;
18789;SDS011;9523;42.650;23.386;2023-05-01T02:09:46;8.67;;;7.10;;
18789;SDS011;9523;42.650;23.386;2023-05-01T02:12:15;8.27;;;6.87;;
18789;SDS011;9523;42.650;23.386;2023-05-01T02:14:44;8.10;;;7.03;;
18789;SDS011;9523;42.650;23.386;2023-05-01T02:17:13;8.97;;;7.50;;
18789;SDS011;9523;42.650;23.386;2023-05-01T02:19:41;10.53;;;7.07;;
18789;SDS011;9523;42.650;23.386;2023-05-01T02:22:09;9.00;;;7.30;;
18789;SDS011;9523;42.650;23.386;2023-05-01T02:24:39;7.87;;;6.37;;
18789;SDS011;9523;42.650;23.386;2023-05-01T02:27:10;7.83;;;5.97;;
18789;SDS011;9523;42.650;23.386;2023-05-01T02:29:40;8.47;;;6.57;;
18789;SDS011;9523;42.650;23.386;2023-05-01T02:32:08;7.43;;;6.23;;
18789;SDS011;9523;42.650;23.386;2023-05-01T02:34:35;9.07;;;6.17;;
18789;SDS011;9523;42.650;23.386;2023-05-01T02:37:02;8.23;;;6.10;;
18789;SDS011;9523;42.650;23.386;2023-05-01T02:39:31;7.93;;;5.80;;
18789;SDS011;9523;42.650;23.386;2023-05-01T02:42:00;8.67;;;6.70;;
18789;SDS011;9523;42.650;23.386;2023-05-01T02:44:29;8.13;;;6.70;;
18789;SDS011;9523;42.650;23.386;2023-05-01T02:47:03;8.87;;;6.97;;
18789;SDS011;9523;42.650;23.386;2023-05-01T02:49:32;10.50;;;7.00;;
18789;SDS011;9523;42.650;23.386;2023-05-01T02:52:00;9.53;;;6.83;;
18789;SDS011;9523;42.650;23.386;2023-05-01T02:54:28;8.50;;;6.97;;
18789;SDS011;9523;42.650;23.386;2023-05-01T02:56:56;8.67;;;6.33;;
18789;SDS011;9523;42.650;23.386;2023-05-01T02:59:24;7.13;;;5.90;;
18789;SDS011;9523;42.650;23.386;2023-05-01T03:01:51;8.57;;;6.63;;
18789;SDS011;9523;42.650;23.386;2023-05-01T03:04:18;9.63;;;7.20;;
18789;SDS011;9523;42.650;23.386;2023-05-01T03:06:45;8.47;;;6.43;;
18789;SDS011;9523;42.650;23.386;2023-05-01T03:09:11;8.97;;;6.73;;
18789;SDS011;9523;42.650;23.386;2023-05-01T03:11:38;9.97;;;7.27;;
18789;SDS011;9523;42.650;23.386;2023-05-01T03:14:05;10.47;;;7.43;;
18789;SDS011;9523;42.650;23.386;2023-05-01T03:16:33;8.20;;;6.53;;
18789;SDS011;9523;42.650;23.386;2023-05-01T03:19:00;11.97;;;7.67;;
18789;SDS011;9523;42.650;23.386;2023-05-01T03:21:27;10.70;;;7.83;;
18789;SDS011;9523;42.650;23.386;2023-05-01T03:23:54;10.80;;;8.43;;
18789;SDS011;9523;42.650;23.386;2023-05-01T03:26:20;9.83;;;7.60;;
18789;SDS011;9523;42.650;23.386;2023-05-01T03:28:47;11.20;;;7.70;;
18789;SDS011;9523;42.650;23.386;2023-05-01T03:31:14;8.63;;;6.77;;
18789;SDS011;9523;42.650;23.386;2023-05-01T03:33:42;9.63;;;6.73;;
18789;SDS011;9523;42.650;23.386;2023-05-01T03:36:09;9.67;;;7.30;;
18789;SDS011;9523;42.650;23.386;2023-05-01T03:38:36;9.10;;;6.47;;
18789;SDS011;9523;42.650;23.386;2023-05-01T03:41:03;8.87;;;6.80;;
18789;SDS011;9523;42.650;23.386;2023-05-01T03:43:30;6.97;;;6.23;;
18789;SDS011;9523;42.650;23.386;2023-05-01T03:45:57;8.47;;;6.70;;
18789;SDS011;9523;42.650;23.386;2023-05-01T03:48:24;8.63;;;6.80;;
18789;SDS011;9523;42.650;23.386;2023-05-01T03:50:52;8.93;;;6.50;;
18789;SDS011;9523;42.650;23.386;2023-05-01T03:53:19;7.07;;;6.20;;
18789;SDS011;9523;42.650;23.386;2023-05-01T03:55:46;10.27;;;7.30;;
18789;SDS011;9523;42.650;23.386;2023-05-01T03:58:13;9.23;;;7.73;;
18789;SDS011;9523;42.650;23.386;2023-05-01T04:00:40;11.53;;;7.03;;
18789;SDS011;9523;42.650;23.386;2023-05-01T04:03:07;8.50;;;7.07;;
18789;SDS011;9523;42.650;23.386;2023-05-01T04:05:33;9.73;;;7.50;;
18789;SDS011;9523;42.650;23.386;2023-05-01T04:08:02;10.13;;;8.00;;
18789;SDS011;9523;42.650;23.386;2023-05-01T04:10:29;12.33;;;7.50;;
18789;SDS011;9523;42.650;23.386;2023-05-01T04:12:56;11.13;;;6.83;;
18789;SDS011;9523;42.650;23.386;2023-05-01T04:15:23;9.50;;;7.07;;
18789;SDS011;9523;42.650;23.386;2023-05-01T04:17:49;9.47;;;6.93;;
18789;SDS011;9523;42.650;23.386;2023-05-01T04:20:16;10.00;;;6.67;;
18789;SDS011;9523;42.650;23.386;2023-05-01T04:22:43;8.93;;;6.57;;
18789;SDS011;9523;42.650;23.386;2023-05-01T04:25:11;8.00;;;6.57;;
18789;SDS011;9523;42.650;23.386;2023-05-01T04:27:38;10.13;;;7.20;;
18789;SDS011;9523;42.650;23.386;2023-05-01T04:30:05;8.03;;;6.57;;
18789;SDS011;9523;42.650;23.386;2023-05-01T04:32:33;8.67;;;6.70;;
18789;SDS011;9523;42.650;23.386;2023-05-01T04:35:00;8.50;;;6.73;;
18789;SDS011;9523;42.650;23.386;2023-05-01T04:37:27;8.80;;;6.60;;
18789;SDS011;9523;42.650;23.386;2023-05-01T04:39:54;10.30;;;7.20;;
18789;SDS011;9523;42.650;23.386;2023-05-01T04:42:22;7.93;;;6.63;;
18789;SDS011;9523;42.650;23.386;2023-05-01T04:44:49;11.43;;;6.80;;
18789;SDS011;9523;42.650;23.386;2023-05-01T04:47:16;7.60;;;6.37;;
18789;SDS011;9523;42.650;23.386;2023-05-01T04:49:42;9.00;;;6.80;;
18789;SDS011;9523;42.650;23.386;2023-05-01T04:52:09;10.37;;;6.80;;
18789;SDS011;9523;42.650;23.386;2023-05-01T04:54:36;7.73;;;6.37;;
18789;SDS011;9523;42.650;23.386;2023-05-01T04:57:03;10.27;;;6.20;;
18789;SDS011;9523;42.650;23.386;2023-05-01T04:59:31;8.13;;;6.90;;
18789;SDS011;9523;42.650;23.386;2023-05-01T05:01:58;7.53;;;6.70;;
18789;SDS011;9523;42.650;23.386;2023-05-01T05:04:25;9.83;;;6.73;;
18789;SDS011;9523;42.650;23.386;2023-05-01T05:06:52;8.70;;;6.93;;
18789;SDS011;9523;42.650;23.386;2023-05-01T05:09:19;10.07;;;6.93;;
18789;SDS011;9523;42.650;23.386;2023-05-01T05:11:45;7.60;;;6.80;;
18789;SDS011;9523;42.650;23.386;2023-05-01T05:14:12;10.93;;;6.47;;
18789;SDS011;9523;42.650;23.386;2023-05-01T05:16:40;10.93;;;7.37;;
18789;SDS011;9523;42.650;23.386;2023-05-01T05:19:07;7.53;;;6.73;;
18789;SDS011;9523;42.650;23.386;2023-05-01T05:21:34;11.33;;;9.00;;
18789;SDS011;9523;42.650;23.386;2023-05-01T05:24:01;10.73;;;8.47;;
18789;SDS011;9523;42.650;23.386;2023-05-01T05:26:29;12.27;;;8.77;;
18789;SDS011;9523;42.650;23.386;2023-05-01T05:28:55;13.10;;;8.23;;
18789;SDS011;9523;42.650;23.386;2023-05-01T05:31:25;11.33;;;8.53;;
18789;SDS011;9523;42.650;23.386;2023-05-01T05:33:53;12.93;;;9.20;;
18789;SDS011;9523;42.650;23.386;2023-05-01T05:36:20;9.83;;;8.67;;
18789;SDS011;9523;42.650;23.386;2023-05-01T05:38:47;13.57;;;9.17;;
18789;SDS011;9523;42.650;23.386;2023-05-01T05:41:14;12.00;;;9.53;;
18789;SDS011;9523;42.650;23.386;2023-05-01T05:43:41;14.20;;;10.03;;
18789;SDS011;9523;42.650;23.386;2023-05-01T05:46:08;14.60;;;10.67;;
18789;SDS011;9523;42.650;23.386;2023-05-01T05:48:35;15.10;;;11.83;;
18789;SDS011;9523;42.650;23.386;2023-05-01T05:51:03;15.47;;;11.40;;
18789;SDS011;9523;42.650;23.386;2023-05-01T05:53:34;14.33;;;11.23;;
18789;SDS011;9523;42.650;23.386;2023-05-01T05:56:00;15.33;;;11.03;;
18789;SDS011;9523;42.650;23.386;2023-05-01T05:58:27;16.73;;;12.00;;
18789;SDS011;9523;42.650;23.386;2023-05-01T06:00:54;14.13;;;11.43;;
18789;SDS011;9523;42.650;23.386;2023-05-01T06:03:21;15.93;;;11.40;;
18789;SDS011;9523;42.650;23.386;2023-05-01T06:05:48;14.30;;;11.20;;
18789;SDS011;9523;42.650;23.386;2023-05-01T06:08:16;14.13;;;10.37;;
18789;SDS011;9523;42.650;23.386;2023-05-01T06:10:43;13.90;;;11.33;;
18789;SDS011;9523;42.650;23.386;2023-05-01T06:13:10;12.63;;;11.13;;
18789;SDS011;9523;42.650;23.386;2023-05-01T06:15:37;13.43;;;11.27;;
18789;SDS011;9523;42.650;23.386;2023-05-01T06:18:05;15.03;;;11.00;;
18789;SDS011;9523;42.650;23.386;2023-05-01T06:20:32;12.03;;;10.63;;
18789;SDS011;9523;42.650;23.386;2023-05-01T06:22:59;13.80;;;11.37;;
18789;SDS011;9523;42.650;23.386;2023-05-01T06:25:27;14.03;;;11.60;;
18789;SDS011;9523;42.650;23.386;2023-05-01T06:27:54;13.20;;;10.30;;
18789;SDS011;9523;42.650;23.386;2023-05-01T06:30:21;16.80;;;11.60;;
18789;SDS011;9523;42.650;23.386;2023-05-01T06:32:48;14.07;;;10.83;;
18789;SDS011;9523;42.650;23.386;2023-05-01T06:35:14;13.57;;;10.33;;
18789;SDS011;9523;42.650;23.386;2023-05-01T06:37:41;14.77;;;11.43;;
18789;SDS011;9523;42.650;23.386;2023-05-01T06:40:08;14.27;;;11.27;;
18789;SDS011;9523;42.650;23.386;2023-05-01T06:42:37;15.83;;;10.80;;
18789;SDS011;9523;42.650;23.386;2023-05-01T06:45:05;15.97;;;10.77;;
18789;SDS011;9523;42.650;23.386;2023-05-01T06:47:32;13.70;;;10.80;;
18789;SDS011;9523;42.650;23.386;2023-05-01T06:49:59;12.67;;;9.53;;
18789;SDS011;9523;42.650;23.386;2023-05-01T06:52:26;12.27;;;10.20;;
18789;SDS011;9523;42.650;23.386;2023-05-01T06:54:53;14.70;;;9.97;;
18789;SDS011;9523;42.650;23.386;2023-05-01T06:57:20;12.57;;;10.03;;
18789;SDS011;9523;42.650;23.386;2023-05-01T06:59:48;16.40;;;10.47;;
18789;SDS011;9523;42.650;23.386;2023-05-01T07:02:15;16.90;;;10.97;;
18789;SDS011;9523;42.650;23.386;2023-05-01T07:04:41;18.83;;;10.90;;
18789;SDS011;9523;42.650;23.386;2023-05-01T07:07:09;22.17;;;12.07;;
18789;SDS011;9523;42.650;23.386;2023-05-01T07:09:36;18.90;;;11.17;;
18789;SDS011;9523;42.650;23.386;2023-05-01T07:12:03;19.90;;;13.37;;
18789;SDS011;9523;42.650;23.386;2023-05-01T07:14:33;17.63;;;11.57;;
18789;SDS011;9523;42.650;23.386;2023-05-01T07:17:01;18.37;;;12.10;;
18789;SDS011;9523;42.650;23.386;2023-05-01T07:19:28;15.60;;;10.97;;
18789;SDS011;9523;42.650;23.386;2023-05-01T07:21:55;14.83;;;10.87;;
18789;SDS011;9523;42.650;23.386;2023-05-01T07:24:21;14.07;;;11.07;;
18789;SDS011;9523;42.650;23.386;2023-05-01T07:26:48;14.00;;;11.33;;
18789;SDS011;9523;42.650;23.386;2023-05-01T07:29:18;17.03;;;11.97;;
18789;SDS011;9523;42.650;23.386;2023-05-01T07:31:45;14.13;;;11.90;;
18789;SDS011;9523;42.650;23.386;2023-05-01T07:34:13;24.47;;;15.00;;
18789;SDS011;9523;42.650;23.386;2023-05-01T07:36:41;15.87;;;12.23;;
18789;SDS011;9523;42.650;23.386;2023-05-01T07:39:08;28.87;;;18.97;;
18789;SDS011;9523;42.650;23.386;2023-05-01T07:41:34;20.33;;;11.80;;
18789;SDS011;9523;42.650;23.386;2023-05-01T07:44:01;18.13;;;12.27;;
18789;SDS011;9523;42.650;23.386;2023-05-01T07:46:28;16.53;;;12.13;;
18789;SDS011;9523;42.650;23.386;2023-05-01T07:48:55;12.63;;;10.73;;
18789;SDS011;9523;42.650;23.386;2023-05-01T07:51:23;27.60;;;12.27;;
18789;SDS011;9523;42.650;23.386;2023-05-01T07:53:52;14.07;;;11.57;;
18789;SDS011;9523;42.650;23.386;2023-05-01T07:56:19;21.70;;;11.47;;
18789;SDS011;9523;42.650;23.386;2023-05-01T07:58:46;21.03;;;10.47;;
18789;SDS011;9523;42.650;23.386;2023-05-01T08:01:13;14.10;;;9.27;;
18789;SDS011;9523;42.650;23.386;2023-05-01T08:03:40;28.07;;;10.97;;
18789;SDS011;9523;42.650;23.386;2023-05-01T08:06:07;12.80;;;8.77;;
18789;SDS011;9523;42.650;23.386;2023-05-01T08:08:37;21.57;;;12.83;;
18789;SDS011;9523;42.650;23.386;2023-05-01T08:11:04;12.53;;;8.30;;
18789;SDS011;9523;42.650;23.386;2023-05-01T08:13:31;11.70;;;7.43;;
18789;SDS011;9523;42.650;23.386;2023-05-01T08:15:59;22.50;;;15.83;;
18789;SDS011;9523;42.650;23.386;2023-05-01T08:18:27;14.20;;;9.43;;
18789;SDS011;9523;42.650;23.386;2023-05-01T08:20:54;8.87;;;6.73;;
18789;SDS011;9523;42.650;23.386;2023-05-01T08:23:21;11.20;;;7.80;;
18789;SDS011;9523;42.650;23.386;2023-05-01T08:25:51;11.27;;;8.40;;
18789;SDS011;9523;42.650;23.386;2023-05-01T08:28:21;11.00;;;7.00;;
18789;SDS011;9523;42.650;23.386;2023-05-01T08:30:48;16.23;;;9.17;;
18789;SDS011;9523;42.650;23.386;2023-05-01T08:33:17;12.07;;;6.93;;
18789;SDS011;9523;42.650;23.386;2023-05-01T08:35:44;10.50;;;6.90;;
18789;SDS011;9523;42.650;23.386;2023-05-01T08:38:11;9.43;;;6.30;;
18789;SDS011;9523;42.650;23.386;2023-05-01T08:40:38;6.70;;;5.20;;
18789;SDS011;9523;42.650;23.386;2023-05-01T08:43:10;9.10;;;5.53;;
18789;SDS011;9523;42.650;23.386;2023-05-01T08:45:38;9.03;;;5.03;;
18789;SDS011;9523;42.650;23.386;2023-05-01T08:48:07;6.17;;;4.40;;
18789;SDS011;9523;42.650;23.386;2023-05-01T08:50:35;7.40;;;4.77;;
18789;SDS011;9523;42.650;23.386;2023-05-01T08:53:04;5.83;;;4.40;;
18789;SDS011;9523;42.650;23.386;2023-05-01T08:55:31;4.53;;;3.13;;
18789;SDS011;9523;42.650;23.386;2023-05-01T08:58:00;5.60;;;3.40;;
18789;SDS011;9523;42.650;23.386;2023-05-01T09:00:29;7.93;;;4.90;;
18789;SDS011;9523;42.650;23.386;2023-05-01T09:02:59;4.70;;;3.43;;
18789;SDS011;9523;42.650;23.386;2023-05-01T09:05:27;6.73;;;3.90;;
18789;SDS011;9523;42.650;23.386;2023-05-01T09:07:56;4.95;;;3.67;;
18789;SDS011;9523;42.650;23.386;2023-05-01T09:10:24;14.57;;;8.95;;
18789;SDS011;9523;42.650;23.386;2023-05-01T09:12:53;25.17;;;16.00;;
18789;SDS011;9523;42.650;23.386;2023-05-01T09:15:22;9.25;;;6.10;;
18789;SDS011;9523;42.650;23.386;2023-05-01T09:17:52;7.32;;;4.85;;
18789;SDS011;9523;42.650;23.386;2023-05-01T09:20:19;5.35;;;4.32;;
18789;SDS011;9523;42.650;23.386;2023-05-01T09:22:46;8.40;;;4.53;;
18789;SDS011;9523;42.650;23.386;2023-05-01T09:25:14;12.30;;;5.85;;
18789;SDS011;9523;42.650;23.386;2023-05-01T09:27:41;5.35;;;3.95;;
18789;SDS011;9523;42.650;23.386;2023-05-01T09:30:10;8.38;;;5.13;;
18789;SDS011;9523;42.650;23.386;2023-05-01T09:33:04;6.20;;;4.78;;
18789;SDS011;9523;42.650;23.386;2023-05-01T09:35:31;2.75;;;2.38;;
18789;SDS011;9523;42.650;23.386;2023-05-01T09:37:58;4.28;;;2.35;;
18789;SDS011;9523;42.650;23.386;2023-05-01T09:40:25;6.50;;;4.03;;
18789;SDS011;9523;42.650;23.386;2023-05-01T09:42:53;6.78;;;3.03;;
18789;SDS011;9523;42.650;23.386;2023-05-01T09:45:20;3.38;;;2.85;;
18789;SDS011;9523;42.650;23.386;2023-05-01T09:47:48;5.93;;;2.70;;
18789;SDS011;9523;42.650;23.386;2023-05-01T09:50:29;6.45;;;3.33;;
18789;SDS011;9523;42.650;23.386;2023-05-01T09:52:57;5.50;;;3.20;;
18789;SDS011;9523;42.650;23.386;2023-05-01T09:55:26;2.60;;;2.25;;
18789;SDS011;9523;42.650;23.386;2023-05-01T09:57:52;4.15;;;2.72;;
18789;SDS011;9523;42.650;23.386;2023-05-01T10:00:19;3.03;;;2.50;;
18789;SDS011;9523;42.650;23.386;2023-05-01T10:02:47;2.80;;;2.60;;
18789;SDS011;9523;42.650;23.386;2023-05-01T10:05:14;4.78;;;2.83;;
18789;SDS011;9523;42.650;23.386;2023-05-01T10:07:55;5.18;;;3.60;;
18789;SDS011;9523;42.650;23.386;2023-05-01T10:10:23;3.53;;;2.72;;
18789;SDS011;9523;42.650;23.386;2023-05-01T10:12:50;2.47;;;2.13;;
18789;SDS011;9523;42.650;23.386;2023-05-01T10:15:17;3.90;;;2.67;;
18789;SDS011;9523;42.650;23.386;2023-05-01T10:17:44;6.15;;;3.75;;
18789;SDS011;9523;42.650;23.386;2023-05-01T10:20:15;6.43;;;2.80;;
18789;SDS011;9523;42.650;23.386;2023-05-01T10:22:42;3.00;;;2.55;;
18789;SDS011;9523;42.650;23.386;2023-05-01T10:25:10;7.78;;;4.72;;
18789;SDS011;9523;42.650;23.386;2023-05-01T10:27:38;4.22;;;3.65;;
18789;SDS011;9523;42.650;23.386;2023-05-01T10:30:06;11.35;;;6.80;;
18789;SDS011;9523;42.650;23.386;2023-05-01T10:32:35;6.15;;;4.93;;
18789;SDS011;9523;42.650;23.386;2023-05-01T10:35:04;3.33;;;2.70;;
18789;SDS011;9523;42.650;23.386;2023-05-01T10:37:37;4.05;;;3.10;;
18789;SDS011;9523;42.650;23.386;2023-05-01T10:43:19;8.73;;;3.70;;
18789;SDS011;9523;42.650;23.386;2023-05-01T10:45:50;7.45;;;2.80;;
18789;SDS011;9523;42.650;23.386;2023-05-01T10:51:23;8.20;;;4.40;;
18789;SDS011;9523;42.650;23.386;2023-05-01T10:56:49;7.63;;;6.82;;
18789;SDS011;9523;42.650;23.386;2023-05-01T10:59:16;8.13;;;4.97;;
18789;SDS011;9523;42.650;23.386;2023-05-01T11:01:43;4.97;;;3.80;;
18789;SDS011;9523;42.650;23.386;2023-05-01T11:07:16;3.60;;;2.15;;
18789;SDS011;9523;42.650;23.386;2023-05-01T11:09:44;4.60;;;1.90;;
18789;SDS011;9523;42.650;23.386;2023-05-01T11:12:13;4.03;;;2.95;;
18789;SDS011;9523;42.650;23.386;2023-05-01T11:23:16;5.15;;;4.53;;
18789;SDS011;9523;42.650;23.386;2023-05-01T11:25:43;4.68;;;3.85;;
18789;SDS011;9523;42.650;23.386;2023-05-01T11:28:16;4.82;;;3.60;;
18789;SDS011;9523;42.650;23.386;2023-05-01T11:30:45;2.63;;;2.28;;
18789;SDS011;9523;42.650;23.386;2023-05-01T11:33:12;3.70;;;2.50;;
18789;SDS011;9523;42.650;23.386;2023-05-01T11:35:46;5.60;;;2.15;;
18789;SDS011;9523;42.650;23.386;2023-05-01T11:38:23;3.42;;;2.63;;
18789;SDS011;9523;42.650;23.386;2023-05-01T11:40:52;4.40;;;2.28;;
18789;SDS011;9523;42.650;23.386;2023-05-01T11:43:21;10.77;;;8.55;;
18789;SDS011;9523;42.650;23.386;2023-05-01T11:45:50;4.30;;;3.38;;
18789;SDS011;9523;42.650;23.386;2023-05-01T11:48:19;4.95;;;3.85;;
18789;SDS011;9523;42.650;23.386;2023-05-01T11:50:46;5.53;;;2.97;;
18789;SDS011;9523;42.650;23.386;2023-05-01T11:53:15;2.33;;;1.63;;
18789;SDS011;9523;42.650;23.386;2023-05-01T11:55:42;2.08;;;1.45;;
18789;SDS011;9523;42.650;23.386;2023-05-01T11:58:10;5.50;;;1.35;;
18789;SDS011;9523;42.650;23.386;2023-05-01T12:00:39;2.85;;;1.42;;
18789;SDS011;9523;42.650;23.386;2023-05-01T12:03:07;2.20;;;2.00;;
18789;SDS011;9523;42.650;23.386;2023-05-01T12:05:35;1.70;;;1.60;;
18789;SDS011;9523;42.650;23.386;2023-05-01T12:08:04;2.63;;;1.65;;
18789;SDS011;9523;42.650;23.386;2023-05-01T12:10:36;2.03;;;1.65;;
18789;SDS011;9523;42.650;23.386;2023-05-01T12:13:05;5.07;;;2.00;;
18789;SDS011;9523;42.650;23.386;2023-05-01T12:15:36;2.35;;;1.88;;
18789;SDS011;9523;42.650;23.386;2023-05-01T12:18:06;3.13;;;2.60;;
18789;SDS011;9523;42.650;23.386;2023-05-01T12:20:34;1.98;;;1.80;;
18789;SDS011;9523;42.650;23.386;2023-05-01T12:23:04;2.85;;;1.38;;
18789;SDS011;9523;42.650;23.386;2023-05-01T12:25:31;2.33;;;1.30;;
18789;SDS011;9523;42.650;23.386;2023-05-01T12:28:00;1.88;;;1.30;;
18789;SDS011;9523;42.650;23.386;2023-05-01T12:30:28;2.38;;;1.48;;
18789;SDS011;9523;42.650;23.386;2023-05-01T12:32:57;1.30;;;1.20;;
18789;SDS011;9523;42.650;23.386;2023-05-01T12:35:28;1.35;;;1.25;;
18789;SDS011;9523;42.650;23.386;2023-05-01T12:37:56;2.20;;;1.40;;
18789;SDS011;9523;42.650;23.386;2023-05-01T12:40:33;2.47;;;1.83;;
18789;SDS011;9523;42.650;23.386;2023-05-01T12:43:05;1.83;;;1.35;;
18789;SDS011;9523;42.650;23.386;2023-05-01T12:45:38;43.38;;;26.52;;
18789;SDS011;9523;42.650;23.386;2023-05-01T12:48:10;96.57;;;56.88;;
18789;SDS011;9523;42.650;23.386;2023-05-01T12:50:39;22.65;;;14.18;;
18789;SDS011;9523;42.650;23.386;2023-05-01T12:53:06;63.38;;;37.35;;
18789;SDS011;9523;42.650;23.386;2023-05-01T12:55:43;102.18;;;60.00;;
18789;SDS011;9523;42.650;23.386;2023-05-01T12:58:12;63.97;;;37.28;;
18789;SDS011;9523;42.650;23.386;2023-05-01T13:00:46;13.63;;;8.30;;
18789;SDS011;9523;42.650;23.386;2023-05-01T13:03:18;50.55;;;31.60;;
18789;SDS011;9523;42.650;23.386;2023-05-01T13:05:52;12.82;;;8.73;;
18789;SDS011;9523;42.650;23.386;2023-05-01T13:08:27;20.00;;;13.77;;
18789;SDS011;9523;42.650;23.386;2023-05-01T13:10:56;24.90;;;16.48;;
18789;SDS011;9523;42.650;23.386;2023-05-01T13:13:25;13.40;;;8.30;;
18789;SDS011;9523;42.650;23.386;2023-05-01T13:15:53;3.55;;;2.33;;
18789;SDS011;9523;42.650;23.386;2023-05-01T13:18:30;10.57;;;7.25;;
18789;SDS011;9523;42.650;23.386;2023-05-01T13:21:05;7.82;;;4.15;;
18789;SDS011;9523;42.650;23.386;2023-05-01T13:23:33;3.97;;;1.98;;
18789;SDS011;9523;42.650;23.386;2023-05-01T13:26:02;3.92;;;2.22;;
18789;SDS011;9523;42.650;23.386;2023-05-01T13:28:32;2.90;;;1.40;;
18789;SDS011;9523;42.650;23.386;2023-05-01T13:31:00;6.38;;;2.55;;
18789;SDS011;9523;42.650;23.386;2023-05-01T13:33:27;3.50;;;2.28;;
18789;SDS011;9523;42.650;23.386;2023-05-01T13:35:57;5.60;;;4.15;;
18789;SDS011;9523;42.650;23.386;2023-05-01T13:38:28;17.15;;;10.77;;
18789;SDS011;9523;42.650;23.386;2023-05-01T13:41:01;11.02;;;4.93;;
18789;SDS011;9523;42.650;23.386;2023-05-01T13:43:27;21.15;;;11.95;;
18789;SDS011;9523;42.650;23.386;2023-05-01T13:45:56;27.23;;;16.17;;
18789;SDS011;9523;42.650;23.386;2023-05-01T13:48:24;9.68;;;6.07;;
18789;SDS011;9523;42.650;23.386;2023-05-01T13:50:52;12.55;;;7.90;;
18789;SDS011;9523;42.650;23.386;2023-05-01T13:53:19;45.67;;;30.23;;
18789;SDS011;9523;42.650;23.386;2023-05-01T13:55:46;15.70;;;8.80;;
18789;SDS011;9523;42.650;23.386;2023-05-01T13:58:13;14.32;;;9.25;;
18789;SDS011;9523;42.650;23.386;2023-05-01T14:00:40;11.50;;;6.10;;
18789;SDS011;9523;42.650;23.386;2023-05-01T14:03:09;5.60;;;3.45;;
18789;SDS011;9523;42.650;23.386;2023-05-01T14:05:37;5.07;;;2.13;;
18789;SDS011;9523;42.650;23.386;2023-05-01T14:08:07;13.40;;;8.63;;
18789;SDS011;9523;42.650;23.386;2023-05-01T14:10:34;21.25;;;16.00;;
18789;SDS011;9523;42.650;23.386;2023-05-01T14:13:01;4.95;;;2.28;;
18789;SDS011;9523;42.650;23.386;2023-05-01T14:15:30;6.85;;;4.25;;
18789;SDS011;9523;42.650;23.386;2023-05-01T14:18:02;6.10;;;3.45;;
18789;SDS011;9523;42.650;23.386;2023-05-01T14:20:30;8.05;;;5.15;;
18789;SDS011;9523;42.650;23.386;2023-05-01T14:22:58;8.40;;;5.45;;
18789;SDS011;9523;42.650;23.386;2023-05-01T14:25:27;2.80;;;2.33;;
18789;SDS011;9523;42.650;23.386;2023-05-01T14:27:56;2.22;;;1.83;;
18789;SDS011;9523;42.650;23.386;2023-05-01T14:30:25;1.83;;;1.60;;
18789;SDS011;9523;42.650;23.386;2023-05-01T14:32:54;4.10;;;2.45;;
18789;SDS011;9523;42.650;23.386;2023-05-01T14:35:24;1.80;;;1.45;;
18789;SDS011;9523;42.650;23.386;2023-05-01T14:37:51;2.83;;;1.50;;
18789;SDS011;9523;42.650;23.386;2023-05-01T14:40:22;1.98;;;1.20;;
18789;SDS011;9523;42.650;23.386;2023-05-01T14:42:53;4.05;;;1.80;;
18789;SDS011;9523;42.650;23.386;2023-05-01T14:45:20;1.30;;;1.20;;
18789;SDS011;9523;42.650;23.386;2023-05-01T14:47:47;1.40;;;1.30;;
18789;SDS011;9523;42.650;23.386;2023-05-01T14:50:18;3.92;;;1.30;;
18789;SDS011;9523;42.650;23.386;2023-05-01T14:52:51;4.60;;;1.50;;
18789;SDS011;9523;42.650;23.386;2023-05-01T14:55:18;1.88;;;1.42;;
18789;SDS011;9523;42.650;23.386;2023-05-01T14:57:50;3.97;;;1.40;;
18789;SDS011;9523;42.650;23.386;2023-05-01T15:00:19;3.00;;;1.58;;
18789;SDS011;9523;42.650;23.386;2023-05-01T15:02:46;2.28;;;1.10;;
18789;SDS011;9523;42.650;23.386;2023-05-01T15:05:15;1.33;;;1.20;;
18789;SDS011;9523;42.650;23.386;2023-05-01T15:07:43;1.42;;;1.20;;
18789;SDS011;9523;42.650;23.386;2023-05-01T15:10:10;3.47;;;1.58;;
18789;SDS011;9523;42.650;23.386;2023-05-01T15:12:37;2.17;;;1.60;;